Time;durP1;ratioP1;P1;durP2;ratioP2;P2;SDS_P1;SDS_P2;PMS_P1;PMS_P2;Temp;Humidity;BMP_temperature;BMP_pressure;BME280_temperature;BME280_humidity;BME280_pressure;Samples;Min_cycle;Max_cycle;Signal;HPM_P1;HPM_P2
2024/04/01 00:01:33;;;;;;;1.50;1.00;;;;;;;22.85;41.82;98482.19;4534304;28;20033;-49
2024/04/01 00:03:44;;;;;;;1.67;1.00;;;;;;;22.84;41.75;98471.91;4534121;28;20041;-51
2024/04/01 00:05:55;;;;;;;1.10;0.90;;;;;;;22.83;41.85;98476.06;4518132;28;20030;-51
2024/04/01 00:08:06;;;;;;;2.13;0.98;;;;;;;22.82;41.84;98469.47;4532958;28;20080;-55
2024/04/01 00:10:16;;;;;;;1.50;0.90;;;;;;;22.82;42.02;98465.78;4534345;28;20489;-52
2024/04/01 00:12:26;;;;;;;0.85;0.75;;;;;;;22.81;41.97;98456.34;4533487;28;21751;-51
2024/04/01 00:14:37;;;;;;;1.35;1.00;;;;;;;22.80;41.78;98454.72;4534688;28;20033;-51
2024/04/01 00:16:47;;;;;;;1.60;1.00;;;;;;;22.81;41.64;98456.34;4533907;28;20518;-51
2024/04/01 00:18:57;;;;;;;2.00;0.90;;;;;;;22.81;41.68;98455.53;4534835;28;20044;-53
2024/04/01 00:21:08;;;;;;;1.30;0.90;;;;;;;22.81;41.57;98444.84;4534905;28;20048;-51
2024/04/01 00:23:18;;;;;;;1.80;1.00;;;;;;;22.81;41.79;98444.03;4535466;28;20417;-50
2024/04/01 00:25:29;;;;;;;1.50;1.10;;;;;;;22.80;42.01;98437.44;4524708;28;20452;-52
2024/04/01 00:27:39;;;;;;;1.02;0.90;;;;;;;22.81;41.80;98444.03;4535407;28;20485;-50
2024/04/01 00:29:50;;;;;;;1.10;0.80;;;;;;;22.79;41.93;98444.47;4534294;28;20021;-52
2024/04/01 00:32:00;;;;;;;1.80;1.02;;;;;;;22.78;41.81;98439.97;4535397;28;22891;-50
2024/04/01 00:34:10;;;;;;;1.55;0.82;;;;;;;22.80;41.88;98453.91;4536596;28;20095;-51
2024/04/01 00:36:21;;;;;;;1.42;1.05;;;;;;;22.79;41.85;98441.59;4533560;28;20062;-51
2024/04/01 00:38:32;;;;;;;1.17;0.80;;;;;;;22.78;41.63;98434.22;4525538;28;20041;-51
2024/04/01 00:40:42;;;;;;;1.58;0.95;;;;;;;22.78;41.79;98433.41;4534800;28;20124;-50
2024/04/01 00:43:03;;;;;;;1.50;0.90;;;;;;;22.79;41.73;98432.13;4533891;28;20087;-50
2024/04/01 00:45:14;;;;;;;2.33;1.00;;;;;;;22.79;41.81;98429.25;4535116;28;20044;-53
2024/04/01 00:47:25;;;;;;;1.20;1.00;;;;;;;22.78;41.74;98424.78;4534449;28;20041;-50
2024/04/01 00:49:35;;;;;;;1.63;1.00;;;;;;;22.77;41.97;98423.16;4533281;28;20040;-50
2024/04/01 00:51:46;;;;;;;1.52;1.02;;;;;;;22.77;41.71;98414.53;4534406;28;20032;-51
2024/04/01 00:53:56;;;;;;;1.35;1.08;;;;;;;22.77;41.55;98423.16;4534444;28;20037;-49
2024/04/01 00:56:07;;;;;;;2.17;1.00;;;;;;;22.76;41.56;98416.56;4534391;28;20041;-50
2024/04/01 00:58:18;;;;;;;1.35;1.02;;;;;;;22.74;41.86;98412.53;4535470;28;20044;-53
2024/04/01 01:00:30;;;;;;;1.05;0.95;;;;;;;22.75;41.58;98405.50;4509384;28;20045;-51
2024/04/01 01:02:41;;;;;;;1.30;0.95;;;;;;;22.73;41.94;98396.50;4533997;28;20117;-51
2024/04/01 01:04:52;;;;;;;1.33;0.98;;;;;;;22.74;41.76;98386.63;4508838;28;20041;-53
2024/04/01 01:07:03;;;;;;;1.20;1.08;;;;;;;22.73;41.65;98377.19;4533538;28;20044;-50
2024/04/01 01:09:13;;;;;;;1.30;0.90;;;;;;;22.73;41.61;98376.38;4533532;28;20037;-53
2024/04/01 01:11:24;;;;;;;1.20;0.90;;;;;;;22.73;41.82;98390.75;4518313;28;20029;-54
2024/04/01 01:13:34;;;;;;;1.88;1.00;;;;;;;22.73;42.06;98393.63;4533812;28;20091;-54
2024/04/01 01:15:45;;;;;;;1.77;0.80;;;;;;;22.72;41.58;98394.88;4534412;28;20038;-50
2024/04/01 01:17:56;;;;;;;1.20;0.90;;;;;;;22.73;41.63;98402.25;4535224;28;20872;-50
2024/04/01 01:20:13;;;;;;;1.02;0.88;;;;;;;22.73;41.97;98402.25;4533269;28;20027;-51
2024/04/01 01:22:36;;;;;;;1.30;1.00;;;;;;;22.73;41.58;98399.38;4535302;28;20049;-51
2024/04/01 01:24:46;;;;;;;1.70;0.90;;;;;;;22.74;41.85;98398.13;4533750;28;20808;-52
2024/04/01 01:26:57;;;;;;;1.52;1.05;;;;;;;22.74;42.01;98401.81;4531982;28;20132;-50
2024/04/01 01:29:07;;;;;;;1.70;1.00;;;;;;;22.74;41.94;98395.25;4533015;28;20037;-53
2024/04/01 01:31:18;;;;;;;1.67;0.90;;;;;;;22.73;41.66;98396.50;4531420;28;20029;-50
2024/04/01 01:33:30;;;;;;;1.63;1.10;;;;;;;22.72;41.59;98394.88;4532793;28;20034;-50
2024/04/01 01:35:41;;;;;;;1.30;0.95;;;;;;;22.72;41.76;98401.41;4535765;28;20049;-51
2024/04/01 01:37:53;;;;;;;1.75;1.00;;;;;;;22.72;41.55;98400.63;4532955;28;20148;-51
2024/04/01 01:40:04;;;;;;;1.85;1.13;;;;;;;22.72;41.98;98392.00;4533779;28;20035;-55
2024/04/01 01:42:14;;;;;;;3.30;1.15;;;;;;;22.71;41.87;98405.56;4534531;28;20558;-50
2024/04/01 01:44:25;;;;;;;1.10;0.90;;;;;;;22.71;41.82;98407.59;4533061;28;20112;-50
2024/04/01 01:46:36;;;;;;;1.98;1.00;;;;;;;22.71;41.90;98410.47;4532906;28;20033;-54
2024/04/01 01:48:46;;;;;;;1.95;0.93;;;;;;;22.72;41.61;98412.13;4532532;28;20033;-50
2024/04/01 01:50:57;;;;;;;1.30;1.00;;;;;;;22.70;41.88;98415.44;4533197;28;20021;-52
2024/04/01 01:53:09;;;;;;;1.40;1.00;;;;;;;22.71;41.75;98414.19;4532561;28;26189;-50
2024/04/01 01:55:19;;;;;;;1.13;1.00;;;;;;;22.71;41.88;98422.00;4532218;28;21605;-50
2024/04/01 01:57:32;;;;;;;1.17;0.95;;;;;;;22.70;41.60;98415.44;4534598;28;20037;-53
2024/04/01 01:59:42;;;;;;;1.42;0.90;;;;;;;22.69;41.71;98413.00;4532223;28;20027;-51
2024/04/01 02:01:52;;;;;;;1.40;0.98;;;;;;;22.70;41.60;98426.13;4534473;28;20037;-51
2024/04/01 02:04:03;;;;;;;1.17;0.93;;;;;;;22.69;41.77;98416.66;4523982;28;23317;-51
2024/04/01 02:06:15;;;;;;;1.10;0.80;;;;;;;22.68;41.73;98408.47;4533187;28;20047;-50
2024/04/01 02:08:25;;;;;;;1.30;0.90;;;;;;;22.67;41.92;98410.56;4531986;28;20111;-50
2024/04/01 02:10:38;;;;;;;1.20;0.98;;;;;;;22.68;41.75;98409.31;4534122;28;20083;-52
2024/04/01 02:12:49;;;;;;;1.63;1.00;;;;;;;22.68;41.87;98399.84;4534106;28;20038;-53
2024/04/01 02:14:59;;;;;;;0.80;0.80;;;;;;;22.67;41.51;98389.59;4531840;28;20068;-53
2024/04/01 02:17:10;;;;;;;1.83;1.00;;;;;;;22.67;41.93;98389.59;4531956;28;23561;-50
2024/04/01 02:19:20;;;;;;;1.25;0.80;;;;;;;22.67;42.09;98392.47;4531517;28;20053;-54
2024/04/01 02:21:30;;;;;;;0.95;0.85;;;;;;;22.66;42.02;98393.75;4532882;28;20049;-51
2024/04/01 02:23:41;;;;;;;1.20;0.80;;;;;;;22.64;41.94;98388.44;4532901;28;20017;-50
2024/04/01 02:25:51;;;;;;;1.27;0.93;;;;;;;22.64;41.88;98376.09;4532941;28;20037;-50
2024/04/01 02:28:02;;;;;;;1.35;0.90;;;;;;;22.63;41.75;98369.53;4531653;28;20048;-50
2024/04/01 02:30:12;;;;;;;0.88;0.85;;;;;;;22.63;41.99;98366.66;4530800;28;20047;-52
2024/04/01 02:32:22;;;;;;;1.25;0.90;;;;;;;22.62;42.09;98367.09;4531537;28;20117;-52
2024/04/01 02:34:33;;;;;;;1.02;0.80;;;;;;;22.62;42.07;98361.34;4522348;28;20037;-49
2024/04/01 02:36:43;;;;;;;0.95;0.82;;;;;;;22.62;41.71;98367.09;4533257;28;20053;-54
2024/04/01 02:38:54;;;;;;;1.85;0.98;;;;;;;22.61;41.68;98372.00;4532831;28;20045;-52
2024/04/01 02:41:04;;;;;;;1.15;0.90;;;;;;;22.60;41.65;98370.41;4533312;28;20034;-50
2024/04/01 02:43:15;;;;;;;0.90;0.80;;;;;;;22.62;41.66;98367.09;4532731;28;20029;-51
2024/04/01 02:45:29;;;;;;;1.35;0.90;;;;;;;22.61;41.83;98359.72;4510491;28;20065;-53
2024/04/01 02:47:39;;;;;;;1.60;1.00;;;;;;;22.62;42.14;98356.41;4532533;28;20029;-51
2024/04/01 02:49:50;;;;;;;1.30;1.00;;;;;;;22.61;41.88;98353.97;4532870;28;20041;-51
2024/04/01 02:52:00;;;;;;;1.08;0.80;;;;;;;22.60;41.88;98350.28;4531434;28;22342;-50
2024/04/01 02:54:10;;;;;;;1.00;0.90;;;;;;;22.61;41.97;98353.97;4531868;28;20041;-49
2024/04/01 02:56:21;;;;;;;1.15;0.70;;;;;;;22.58;41.84;98337.59;4531635;28;20032;-50
2024/04/01 02:58:32;;;;;;;1.25;1.00;;;;;;;22.60;42.00;98337.94;4531931;28;20135;-52
2024/04/01 03:00:45;;;;;;;1.02;0.80;;;;;;;22.60;41.62;98335.91;4532934;28;20037;-50
2024/04/01 03:02:56;;;;;;;1.75;0.80;;;;;;;22.60;41.70;98329.31;4531557;28;20041;-50
2024/04/01 03:05:06;;;;;;;1.30;1.00;;;;;;;22.60;41.99;98330.16;4534334;28;20421;-52
2024/04/01 03:07:16;;;;;;;1.52;0.90;;;;;;;22.60;41.95;98340.81;4531033;28;20092;-50
2024/04/01 03:09:27;;;;;;;1.67;1.00;;;;;;;22.59;41.83;98328.53;4517175;28;20117;-49
2024/04/01 03:11:37;;;;;;;1.73;0.98;;;;;;;22.59;41.75;98336.34;4532643;28;20041;-50
2024/04/01 03:13:50;;;;;;;1.42;1.00;;;;;;;22.59;41.60;98334.28;4532078;28;20053;-53
2024/04/01 03:16:01;;;;;;;1.33;0.82;;;;;;;22.57;41.95;98331.03;4533478;28;20063;-53
2024/04/01 03:18:12;;;;;;;0.93;0.88;;;;;;;22.58;41.59;98332.63;4534725;28;20088;-54
2024/04/01 03:20:23;;;;;;;1.13;1.02;;;;;;;22.58;41.88;98331.84;4535228;28;20064;-54
2024/04/01 03:22:33;;;;;;;1.80;0.80;;;;;;;22.58;41.63;98326.88;4534469;28;20128;-53
2024/04/01 03:24:44;;;;;;;1.02;0.88;;;;;;;22.58;41.71;98331.84;4535737;28;20041;-51
2024/04/01 03:26:54;;;;;;;2.92;0.93;;;;;;;22.58;41.53;98323.22;4535726;28;20044;-51
2024/04/01 03:29:04;;;;;;;1.65;1.05;;;;;;;22.58;41.98;98314.59;4521875;28;20049;-51
2024/04/01 03:31:15;;;;;;;1.42;1.00;;;;;;;22.58;42.01;98308.84;4533820;28;20044;-50
2024/04/01 03:33:25;;;;;;;1.40;0.95;;;;;;;22.57;41.84;98313.78;4534512;28;20034;-50
2024/04/01 03:35:36;;;;;;;1.67;0.90;;;;;;;22.57;41.81;98307.19;4535936;28;20034;-51
2024/04/01 03:37:46;;;;;;;1.30;0.80;;;;;;;22.56;41.64;98300.66;4534755;28;20993;-51
2024/04/01 03:39:56;;;;;;;0.98;0.90;;;;;;;22.56;41.69;98289.16;4536360;28;20124;-50
2024/04/01 03:42:07;;;;;;;2.38;1.02;;;;;;;22.55;41.86;98292.47;4536538;28;20029;-49
2024/04/01 03:44:17;;;;;;;1.15;0.85;;;;;;;22.53;41.88;98295.78;4535962;28;20048;-50
2024/04/01 03:46:28;;;;;;;1.00;0.90;;;;;;;22.52;42.03;98293.31;4535329;28;20030;-52
2024/04/01 03:48:38;;;;;;;1.23;0.90;;;;;;;22.51;41.95;98292.50;4534521;28;20025;-53
2024/04/01 03:50:50;;;;;;;1.42;1.00;;;;;;;22.51;41.68;98288.78;4535050;28;20517;-54
2024/04/01 03:53:00;;;;;;;1.27;0.90;;;;;;;22.51;41.99;98280.16;4533938;28;20784;-55
2024/04/01 03:55:10;;;;;;;1.00;0.80;;;;;;;22.52;41.61;98276.06;4534693;28;20037;-54
2024/04/01 03:57:21;;;;;;;1.13;0.80;;;;;;;22.51;41.71;98275.25;4533546;28;20041;-53
2024/04/01 03:59:31;;;;;;;1.70;0.98;;;;;;;22.51;42.06;98274.41;4534833;28;20105;-54
2024/04/01 04:01:44;;;;;;;1.42;0.98;;;;;;;22.51;41.91;98280.16;4534930;28;20037;-51
2024/04/01 04:03:55;;;;;;;0.90;0.80;;;;;;;22.51;41.79;98268.66;4535709;28;20017;-53
2024/04/01 04:06:11;;;;;;;1.00;0.73;;;;;;;22.51;41.82;98280.97;4533891;28;20044;-51
2024/04/01 04:08:21;;;;;;;1.73;1.05;;;;;;;22.51;41.96;98271.53;4518429;28;20046;-52
2024/04/01 04:10:31;;;;;;;1.27;0.85;;;;;;;22.52;41.68;98281.81;4534649;28;20029;-52
2024/04/01 04:12:42;;;;;;;1.77;1.00;;;;;;;22.51;41.81;98283.03;4534783;28;20402;-52
2024/04/01 04:14:52;;;;;;;1.17;0.90;;;;;;;22.51;41.79;98285.91;4535024;28;20060;-51
2024/04/01 04:17:03;;;;;;;1.55;0.90;;;;;;;22.50;41.60;98284.31;4535029;28;20042;-54
2024/04/01 04:19:14;;;;;;;1.70;1.00;;;;;;;22.50;41.70;98275.69;4535418;28;20060;-55
2024/04/01 04:21:25;;;;;;;1.73;0.80;;;;;;;22.51;41.84;98280.16;4535059;28;20060;-55
2024/04/01 04:23:35;;;;;;;0.98;0.80;;;;;;;22.51;41.48;98280.16;4534588;28;20516;-51
2024/04/01 04:25:45;;;;;;;1.13;0.80;;;;;;;22.50;41.60;98278.56;4535868;28;20044;-50
2024/04/01 04:27:57;;;;;;;0.80;0.80;;;;;;;22.50;41.60;98281.44;4534474;28;20469;-51
2024/04/01 04:30:12;;;;;;;2.40;1.05;;;;;;;22.50;41.61;98272.81;4535123;28;20036;-49
2024/04/01 04:32:22;;;;;;;1.48;0.90;;;;;;;22.48;41.67;98253.13;4533372;28;20075;-52
2024/04/01 04:34:32;;;;;;;1.02;0.90;;;;;;;22.49;41.63;98256.78;4535004;28;20028;-50
2024/04/01 04:36:43;;;;;;;2.58;1.00;;;;;;;22.47;41.84;98253.56;4533313;28;24384;-50
2024/04/01 04:38:53;;;;;;;1.00;0.90;;;;;;;22.48;42.00;98258.03;4533902;28;20065;-53
2024/04/01 04:41:04;;;;;;;0.88;0.77;;;;;;;22.49;41.97;98259.66;4533353;28;20129;-52
2024/04/01 04:43:14;;;;;;;1.15;0.80;;;;;;;22.47;41.67;98254.34;4533816;28;20044;-52
2024/04/01 04:45:25;;;;;;;1.60;0.90;;;;;;;22.47;41.80;98254.34;4534009;28;20069;-52
2024/04/01 04:47:36;;;;;;;1.30;0.88;;;;;;;22.47;41.57;98256.44;4534315;28;20939;-50
2024/04/01 04:49:47;;;;;;;0.88;0.80;;;;;;;22.47;41.54;98265.84;4516798;28;20033;-50
2024/04/01 04:51:57;;;;;;;1.27;0.90;;;;;;;22.46;41.87;98269.16;4534343;28;20497;-50
2024/04/01 04:54:08;;;;;;;1.23;0.90;;;;;;;22.46;41.68;98272.03;4533411;28;20037;-50
2024/04/01 04:56:18;;;;;;;1.80;1.10;;;;;;;22.46;41.86;98272.84;4533644;28;20037;-51
2024/04/01 04:58:29;;;;;;;1.25;0.95;;;;;;;22.46;41.53;98284.34;4520517;28;20038;-50
2024/04/01 05:00:39;;;;;;;1.95;0.90;;;;;;;22.45;41.65;98293.41;4534310;28;20021;-50
2024/04/01 05:02:50;;;;;;;2.30;0.90;;;;;;;22.40;41.60;98279.53;4525787;28;20032;-50
2024/04/01 05:05:01;;;;;;;1.50;1.00;;;;;;;22.44;42.04;98291.78;4534308;28;20029;-54
2024/04/01 05:07:13;;;;;;;1.52;0.90;;;;;;;22.43;41.71;98290.97;4533962;28;20033;-53
2024/04/01 05:09:23;;;;;;;1.10;1.00;;;;;;;22.44;41.65;98294.66;4534713;28;20044;-54
2024/04/01 05:11:34;;;;;;;1.80;1.10;;;;;;;22.44;41.50;98297.53;4532315;28;20032;-51
2024/04/01 05:13:44;;;;;;;1.85;0.88;;;;;;;22.44;41.89;98303.28;4534236;28;20055;-54
2024/04/01 05:15:55;;;;;;;1.17;0.80;;;;;;;22.44;41.56;98301.22;4533357;28;20041;-50
2024/04/01 05:18:05;;;;;;;1.50;1.10;;;;;;;22.44;41.60;98321.34;4532793;28;20048;-49
2024/04/01 05:20:15;;;;;;;2.10;1.05;;;;;;;22.43;41.61;98316.03;4533429;28;20038;-54
2024/04/01 05:22:27;;;;;;;1.17;0.90;;;;;;;22.43;41.98;98331.22;4524004;28;20041;-50
2024/04/01 05:24:37;;;;;;;1.13;0.80;;;;;;;22.43;41.81;98330.41;4533764;28;20025;-49
2024/04/01 05:26:47;;;;;;;1.35;0.85;;;;;;;22.43;41.90;98339.84;4533152;28;20049;-50
2024/04/01 05:28:59;;;;;;;2.72;1.10;;;;;;;22.41;41.75;98333.69;4532391;28;20023;-52
2024/04/01 05:31:09;;;;;;;1.55;0.93;;;;;;;22.41;41.73;98344.38;4533477;28;20068;-51
2024/04/01 05:33:20;;;;;;;1.33;0.95;;;;;;;22.41;42.05;98344.38;4517755;28;20036;-50
2024/04/01 05:35:33;;;;;;;2.13;1.05;;;;;;;22.40;41.94;98348.50;4525138;28;20045;-51
2024/04/01 05:37:44;;;;;;;1.23;0.90;;;;;;;22.42;42.05;98369.81;4533937;28;20041;-51
2024/04/01 05:39:54;;;;;;;2.22;1.15;;;;;;;22.40;41.57;98369.47;4534076;28;20048;-49
2024/04/01 05:42:04;;;;;;;0.93;0.80;;;;;;;22.39;41.82;98369.88;4533720;28;20489;-49
2024/04/01 05:44:15;;;;;;;1.27;0.90;;;;;;;22.40;42.04;98388.75;4533629;28;20556;-50
2024/04/01 05:46:25;;;;;;;1.83;0.90;;;;;;;22.39;41.98;98387.13;4532207;28;20482;-49
2024/04/01 05:48:36;;;;;;;1.20;0.80;;;;;;;22.39;41.74;98392.88;4533429;28;20487;-52
2024/04/01 05:50:52;;;;;;;1.30;0.90;;;;;;;22.39;41.68;98387.13;4532909;28;20025;-50
2024/04/01 05:53:03;;;;;;;2.17;1.15;;;;;;;22.37;41.63;98378.94;4533070;28;20612;-50
2024/04/01 05:55:13;;;;;;;2.70;0.98;;;;;;;22.36;41.85;98383.03;4533224;28;20119;-49
2024/04/01 05:57:24;;;;;;;2.33;0.90;;;;;;;22.36;41.81;98374.41;4533022;28;20037;-54
2024/04/01 05:59:34;;;;;;;1.60;0.98;;;;;;;22.37;41.56;98383.88;4534082;28;20557;-50
2024/04/01 06:01:44;;;;;;;1.10;0.80;;;;;;;22.35;41.92;98374.84;4532506;28;20037;-50
2024/04/01 06:03:55;;;;;;;1.52;0.93;;;;;;;22.35;41.76;98363.34;4532702;28;20121;-53
2024/04/01 06:06:05;;;;;;;1.58;1.00;;;;;;;22.35;41.79;98358.44;4532970;28;28129;-49
2024/04/01 06:08:16;;;;;;;1.17;0.90;;;;;;;22.35;41.77;98361.31;4532625;28;20053;-50
2024/04/01 06:10:26;;;;;;;1.40;0.88;;;;;;;22.36;41.82;98353.50;4531776;28;20036;-49
2024/04/01 06:12:37;;;;;;;1.52;1.13;;;;;;;22.34;42.02;98345.31;4531677;28;20060;-50
2024/04/01 06:14:47;;;;;;;1.40;0.85;;;;;;;22.33;42.10;98340.81;4531136;28;20038;-50
2024/04/01 06:16:58;;;;;;;1.42;0.90;;;;;;;22.34;41.61;98336.69;4532446;28;20039;-50
2024/04/01 06:19:08;;;;;;;1.27;0.88;;;;;;;22.33;42.10;98331.34;4532173;28;20120;-51
2024/04/01 06:21:18;;;;;;;1.00;0.80;;;;;;;22.33;41.94;98332.19;4533936;28;20033;-51
2024/04/01 06:23:29;;;;;;;1.10;0.80;;;;;;;22.34;41.57;98327.25;4533205;28;20048;-53
2024/04/01 06:25:40;;;;;;;1.17;0.80;;;;;;;22.33;41.75;98332.19;4533583;28;20079;-50
2024/04/01 06:27:51;;;;;;;1.92;0.80;;;;;;;22.32;41.71;98324.00;4533027;28;20038;-53
2024/04/01 06:30:01;;;;;;;1.92;1.00;;;;;;;22.33;42.02;98331.34;4531532;28;20030;-50
2024/04/01 06:32:11;;;;;;;1.70;0.93;;;;;;;22.32;41.78;98319.06;4532143;28;20041;-51
2024/04/01 06:34:22;;;;;;;2.42;1.00;;;;;;;22.32;41.77;98312.50;4532644;28;20065;-51
2024/04/01 06:36:34;;;;;;;1.45;0.95;;;;;;;22.32;41.58;98319.06;4533234;28;20120;-49
2024/04/01 06:38:44;;;;;;;0.95;0.80;;;;;;;22.32;41.73;98324.00;4517982;28;20045;-50
2024/04/01 06:40:56;;;;;;;2.30;0.90;;;;;;;22.32;41.80;98344.13;4532866;28;20041;-49
2024/04/01 06:43:06;;;;;;;1.42;1.00;;;;;;;22.31;41.64;98349.03;4533977;28;20044;-50
2024/04/01 06:45:16;;;;;;;1.70;0.90;;;;;;;22.30;41.89;98361.78;4532182;28;20027;-49
2024/04/01 06:47:27;;;;;;;1.00;0.90;;;;;;;22.31;41.96;98363.41;4524018;28;20037;-50
2024/04/01 06:49:37;;;;;;;2.47;1.10;;;;;;;22.31;41.65;98354.00;4532360;28;20030;-49
2024/04/01 06:51:48;;;;;;;2.58;1.10;;;;;;;22.30;42.09;98352.34;4536252;28;20470;-49
2024/04/01 06:53:58;;;;;;;2.78;0.95;;;;;;;22.29;41.72;98347.84;4535905;28;20042;-50
2024/04/01 06:56:09;;;;;;;1.77;0.90;;;;;;;22.30;41.75;98343.72;4536424;28;20034;-51
2024/04/01 06:58:19;;;;;;;1.35;0.95;;;;;;;22.30;41.62;98340.84;4536817;28;20037;-50
2024/04/01 07:00:31;;;;;;;1.00;0.80;;;;;;;22.30;42.10;98341.66;4535541;28;20056;-53
2024/04/01 07:02:41;;;;;;;1.42;1.05;;;;;;;22.31;41.95;98342.50;4523524;28;20041;-50
2024/04/01 07:04:52;;;;;;;1.17;0.88;;;;;;;22.32;41.79;98336.31;4535448;28;20037;-49
2024/04/01 07:07:15;;;;;;;3.65;1.00;;;;;;;22.32;41.65;98341.25;4519693;28;20041;-51
2024/04/01 07:09:25;;;;;;;3.08;0.90;;;;;;;22.30;41.86;98338.81;4535877;28;20599;-50
2024/04/01 07:12:13;;;;;;;1.15;0.90;;;;;;;22.30;42.25;98335.09;4535116;28;20061;-49
2024/04/01 07:15:13;;;;;;;1.45;0.90;;;;;;;22.31;41.90;98334.66;4535261;28;20095;-51
2024/04/01 07:17:24;;;;;;;2.60;1.38;;;;;;;22.33;42.20;98339.97;4536270;28;20191;-49
2024/04/01 07:19:59;;;;;;;2.42;0.80;;;;;;;22.32;42.03;98344.13;4536432;28;20076;-49
2024/04/01 07:22:16;;;;;;;1.85;0.77;;;;;;;22.31;42.08;98340.41;4534706;28;20042;-49
2024/04/01 07:24:26;;;;;;;2.20;1.00;;;;;;;22.30;42.22;98350.28;4536291;28;20033;-49
2024/04/01 07:27:14;;;;;;;0.93;0.82;;;;;;;22.29;42.57;98347.84;4535828;28;20363;-53
2024/04/01 07:29:24;;;;;;;2.20;0.80;;;;;;;22.29;42.60;98354.44;4535225;28;20033;-51
2024/04/01 07:31:35;;;;;;;0.95;0.68;;;;;;;22.05;42.01;98349.84;4517679;28;20049;-53
2024/04/01 07:33:45;;;;;;;1.30;1.10;;;;;;;21.89;38.75;98350.47;4524653;28;20417;-49
2024/04/01 07:35:55;;;;;;;1.40;1.10;;;;;;;21.82;38.97;98341.91;4519309;28;20025;-53
2024/04/01 07:38:06;;;;;;;1.40;1.05;;;;;;;21.76;39.45;98354.31;4521979;28;20095;-51
2024/04/01 07:40:16;;;;;;;1.27;1.00;;;;;;;21.72;40.10;98351.44;4515150;28;20081;-49
2024/04/01 07:42:27;;;;;;;1.33;0.98;;;;;;;21.68;40.28;98350.69;4535416;28;20021;-51
2024/04/01 07:44:37;;;;;;;1.52;1.17;;;;;;;21.65;40.22;98345.81;4534501;28;20046;-50
2024/04/01 07:46:47;;;;;;;1.15;0.93;;;;;;;21.64;40.78;98347.06;4528355;28;20120;-49
2024/04/01 07:48:58;;;;;;;1.42;1.10;;;;;;;21.62;40.87;98334.34;4533303;28;20468;-49
2024/04/01 07:51:08;;;;;;;1.08;0.90;;;;;;;21.59;40.86;98327.44;4533867;28;20048;-51
2024/04/01 07:57:16;;;;;;;0.93;0.70;;;;;;;21.57;41.41;98320.47;4532554;28;20045;-53
2024/04/01 07:59:26;;;;;;;0.70;0.70;;;;;;;21.57;41.63;98329.09;4535403;28;20087;-49
2024/04/01 08:01:37;;;;;;;1.00;0.70;;;;;;;21.55;41.62;98323.78;4532661;28;20161;-54
2024/04/01 08:04:16;;;;;;;0.82;0.80;;;;;;;21.55;41.71;98326.66;4533317;28;23864;-53
2024/04/01 08:06:26;;;;;;;0.90;0.80;;;;;;;21.55;41.47;98338.13;4534956;28;21656;-52
2024/04/01 08:08:37;;;;;;;1.08;0.77;;;;;;;21.54;41.75;98327.06;4534578;28;20075;-52
2024/04/01 08:11:15;;;;;;;1.63;0.70;;;;;;;21.56;41.79;98336.91;4533967;28;20037;-54
2024/04/01 08:13:26;;;;;;;0.80;0.80;;;;;;;21.54;41.89;98345.13;4532486;28;20038;-50
2024/04/01 08:15:36;;;;;;;0.60;0.57;;;;;;;21.54;42.11;98345.13;4533760;28;20404;-52
2024/04/01 08:18:15;;;;;;;1.27;0.70;;;;;;;21.56;42.04;98354.13;4518954;28;20037;-53
2024/04/01 08:20:25;;;;;;;0.60;0.60;;;;;;;21.55;42.47;98361.09;4533253;28;20033;-50
2024/04/01 08:22:35;;;;;;;1.52;0.75;;;;;;;21.55;42.36;98360.28;4534371;28;24044;-51
2024/04/01 08:24:46;;;;;;;1.27;0.70;;;;;;;21.56;42.18;98361.91;4535249;28;20539;-52
2024/04/01 08:26:56;;;;;;;1.08;0.60;;;;;;;21.55;42.51;98361.09;4534265;28;20083;-50
2024/04/01 08:29:07;;;;;;;1.10;0.80;;;;;;;21.56;42.49;98354.13;4533927;28;20056;-50
2024/04/01 08:31:17;;;;;;;1.15;0.70;;;;;;;21.56;42.56;98357.00;4534126;28;20157;-53
2024/04/01 08:33:46;;;;;;;0.80;0.60;;;;;;;21.56;42.15;98367.66;4535540;28;20084;-50
2024/04/01 08:35:57;;;;;;;1.20;0.60;;;;;;;21.56;42.51;98368.47;4515717;28;20065;-53
2024/04/01 08:38:07;;;;;;;0.88;0.70;;;;;;;21.56;42.19;98368.47;4532893;28;20033;-51
2024/04/01 08:40:19;;;;;;;0.57;0.57;;;;;;;21.56;42.55;98376.25;4534656;28;20037;-50
2024/04/01 08:42:31;;;;;;;0.95;0.65;;;;;;;21.55;42.62;98392.66;4518870;28;20916;-52
2024/04/01 08:44:44;;;;;;;0.63;0.60;;;;;;;21.56;42.46;98404.97;4534415;28;20545;-51
2024/04/01 08:46:58;;;;;;;1.17;0.85;;;;;;;21.56;42.58;98413.59;4534510;28;20757;-52
2024/04/01 08:49:12;;;;;;;1.10;1.00;;;;;;;21.56;42.24;98405.78;4535036;28;20034;-49
2024/04/01 08:51:25;;;;;;;0.88;0.80;;;;;;;21.56;42.55;98396.34;4535335;28;20071;-50
2024/04/01 08:53:50;;;;;;;1.33;1.08;;;;;;;21.56;42.20;98397.19;4535074;28;20288;-52
2024/04/01 08:56:00;;;;;;;1.70;1.10;;;;;;;21.56;42.49;98394.31;4534835;28;21241;-51
2024/04/01 08:58:11;;;;;;;1.42;1.33;;;;;;;21.57;42.68;98403.72;4519029;28;20037;-53
2024/04/01 09:00:22;;;;;;;1.75;1.33;;;;;;;21.57;42.49;98395.94;4535362;28;21219;-54
2024/04/01 09:02:33;;;;;;;1.55;1.45;;;;;;;21.57;42.64;98390.19;4534569;28;20608;-53
2024/04/01 09:04:43;;;;;;;1.33;0.90;;;;;;;21.59;42.02;98401.25;4533272;28;20029;-52
2024/04/01 09:06:54;;;;;;;1.40;1.00;;;;;;;21.56;42.59;98384.88;4533402;28;20902;-52
2024/04/01 09:09:05;;;;;;;1.73;1.40;;;;;;;21.62;42.73;98386.84;4533948;28;20029;-54
2024/04/01 09:11:15;;;;;;;1.30;1.20;;;;;;;21.62;42.63;98386.84;4535277;28;20037;-52
2024/04/01 09:13:25;;;;;;;1.40;1.10;;;;;;;21.65;42.53;98397.47;4519263;28;20414;-55
2024/04/01 09:15:36;;;;;;;1.20;1.10;;;;;;;21.66;42.47;98395.44;4519668;28;20217;-51
2024/04/01 09:17:46;;;;;;;2.05;1.33;;;;;;;21.65;42.41;98388.88;4518004;28;20038;-62
2024/04/01 09:20:01;;;;;;;1.08;0.90;;;;;;;21.66;42.58;98399.09;4534131;28;20033;-64
2024/04/01 09:25:25;;;;;;;1.67;1.13;;;;;;;21.68;42.46;98390.06;4533561;28;20041;-63
2024/04/01 09:27:35;;;;;;;1.20;1.08;;;;;;;21.70;42.32;98397.03;4534277;28;20036;-54
2024/04/01 09:29:45;;;;;;;1.67;1.10;;;;;;;21.70;42.83;98397.03;4534130;28;20500;-55
2024/04/01 09:31:56;;;;;;;1.80;1.40;;;;;;;21.71;42.33;98392.06;4532981;28;20516;-56
2024/04/01 09:34:17;;;;;;;2.10;1.50;;;;;;;21.71;42.27;98397.81;4534755;28;20095;-54
2024/04/01 09:36:28;;;;;;;1.90;1.20;;;;;;;21.71;42.67;98395.75;4532462;28;20120;-55
2024/04/01 09:38:39;;;;;;;1.40;1.00;;;;;;;21.71;42.38;98392.91;4522274;28;20935;-55
2024/04/01 09:40:50;;;;;;;1.10;1.00;;;;;;;21.71;42.58;98394.94;4532059;28;20044;-55
2024/04/01 09:43:01;;;;;;;1.52;1.05;;;;;;;21.69;42.61;98389.63;4534019;28;20048;-54
2024/04/01 09:45:12;;;;;;;1.15;0.75;;;;;;;21.70;42.57;98391.28;4533970;28;20048;-56
2024/04/01 09:47:22;;;;;;;0.90;0.70;;;;;;;21.71;42.64;98398.63;4533606;28;20033;-55
2024/04/01 09:49:35;;;;;;;0.50;0.50;;;;;;;21.71;42.27;98392.91;4535383;28;20037;-56
2024/04/01 09:51:46;;;;;;;1.05;0.70;;;;;;;21.71;42.31;98390.03;4533463;28;20025;-53
2024/04/01 09:53:57;;;;;;;0.52;0.52;;;;;;;21.73;42.46;98390.41;4533973;28;20962;-58
2024/04/01 09:56:22;;;;;;;0.98;0.50;;;;;;;21.75;42.15;98393.72;4533028;28;20103;-56
2024/04/01 09:58:33;;;;;;;0.52;0.50;;;;;;;21.76;42.59;98401.06;4533370;28;20048;-56
2024/04/01 10:01:19;;;;;;;1.15;0.60;;;;;;;21.78;42.55;98397.78;4534327;28;20079;-56
2024/04/01 10:03:41;;;;;;;1.02;0.60;;;;;;;21.79;42.18;98400.22;4503139;28;20072;-56
2024/04/01 10:06:06;;;;;;;0.93;0.82;;;;;;;21.80;42.43;98407.56;4533287;28;20048;-56
2024/04/01 10:08:43;;;;;;;1.00;0.70;;;;;;;21.82;42.58;98404.28;4532677;28;20939;-55
2024/04/01 10:11:31;;;;;;;1.83;1.10;;;;;;;21.82;42.60;98407.97;4531680;28;20095;-54
2024/04/01 10:14:06;;;;;;;0.77;0.60;;;;;;;21.84;42.39;98410.41;4533169;28;20608;-56
2024/04/01 10:16:37;;;;;;;0.73;0.65;;;;;;;21.84;42.48;98414.13;4532202;28;20048;-55
2024/04/01 10:19:11;;;;;;;1.10;0.80;;;;;;;21.86;42.50;98410.81;4533440;28;20084;-55
2024/04/01 10:21:55;;;;;;;1.35;0.90;;;;;;;21.88;42.25;98419.81;4533961;28;20041;-56
2024/04/01 10:24:40;;;;;;;2.05;1.05;;;;;;;21.88;42.57;98414.88;4533102;28;21261;-56
2024/04/01 10:27:14;;;;;;;2.60;1.45;;;;;;;21.89;42.59;98410.78;4501328;28;20050;-53
2024/04/01 10:29:49;;;;;;;1.30;0.90;;;;;;;21.91;42.58;98413.22;4532144;28;20093;-53
2024/04/01 10:32:36;;;;;;;1.38;0.80;;;;;;;21.91;42.58;98413.22;4530851;28;20033;-54
2024/04/01 10:35:09;;;;;;;0.93;0.80;;;;;;;21.93;42.69;98413.56;4533275;28;20504;-51